Date,TemperatureHighF,TemperatureAvgF,TemperatureLowF,DewpointHighF,DewpointAvgF,DewpointLowF,HumidityHigh,HumidityAvg,HumidityLow,PressureMaxIn,PressureMinIn,WindSpeedMaxMPH,WindSpeedAvgMPH,GustSpeedMaxMPH,PrecipitationSumIn
2013-2-1,21.6,15.3,8.9,11.6,4.3,-1.9,76,61,50,30.56,30.17,11,2,20,0.00
2013-2-2,34.6,27.6,17.9,27.8,20.9,10.3,86,76,60,30.43,29.58,7,0,12,0.08
2013-2-3,32.0,27.9,22.1,26.0,20.4,15.9,89,73,63,30.23,29.48,4,0,11,0.00
2013-2-4,45.9,32.5,19.8,39.0,25.8,15.0,89,77,47,30.21,29.53,10,0,16,0.09
2013-2-5,50.5,41.6,33.0,38.4,33.3,28.4,89,73,48,30.10,29.89,2,0,11,0.04
2013-2-6,43.2,36.0,29.0,31.6,29.0,25.9,90,76,60,30.32,29.74,0,0,1,0.16
2013-2-7,65.8,48.5,33.7,38.5,33.3,28.3,83,59,34,30.24,29.85,6,0,13,0.02
2013-2-8,53.0,39.3,33.4,46.4,32.7,26.3,89,77,58,30.40,29.78,6,0,15,0.20
2013-2-9,45.8,35.7,25.8,28.0,23.3,21.0,84,62,38,30.47,30.21,0,0,2,0.00
2013-2-10,57.5,46.6,36.8,49.0,35.3,21.4,88,67,39,30.25,29.43,5,1,18,0.22
2013-2-11,55.1,49.1,40.6,50.3,33.9,24.3,88,57,36,30.15,29.83,14,5,24,0.00
2013-2-12,50.4,40.8,30.5,30.0,26.2,22.4,81,57,35,30.22,29.92,5,0,7,0.00
2013-2-13,42.0,37.4,31.9,33.9,29.1,26.4,88,73,57,30.00,29.23,4,0,9,0.06
2013-2-14,56.7,44.1,33.6,36.9,32.7,28.9,86,67,40,30.07,29.93,10,2,20,0.00
2013-2-15,43.9,37.5,28.2,32.8,27.7,17.1,83,68,45,30.24,29.75,8,1,14,0.02
2013-2-16,34.1,27.6,22.0,23.3,14.6,5.5,90,61,33,30.23,30.10,11,2,17,0.00
2013-2-17,38.7,28.7,18.3,16.0,12.3,9.2,79,52,31,30.34,29.18,4,0,13,0.00
2013-2-18,61.7,45.7,29.8,40.9,25.9,13.2,80,47,30,30.26,29.77,22,5,27,0.05
2013-2-19,47.4,36.0,24.4,41.3,24.7,12.4,87,64,43,30.25,29.73,17,6,25,0.12
2013-2-20,32.0,26.4,20.6,13.9,12.4,10.9,69,55,44,30.40,30.21,4,1,13,0.00
2013-2-21,38.1,28.6,19.9,27.8,18.4,12.7,84,66,45,30.41,30.03,10,1,14,0.02
2013-2-22,48.8,40.5,32.1,41.0,35.1,27.8,98,81,66,30.08,29.89,7,1,15,0.20
2013-2-23,46.2,37.7,31.0,33.6,24.2,19.5,82,60,38,30.08,29.52,5,0,9,0.08
2013-2-24,46.9,35.0,24.6,25.0,22.9,19.8,84,63,40,30.22,30.00,4,0,9,0.08
2013-2-25,50.5,39.4,28.7,24.7,22.4,20.3,73,52,31,30.19,29.72,11,2,16,0.01
2013-2-26,51.2,43.9,39.7,48.2,37.2,22.7,91,79,46,29.84,29.02,10,2,20,0.69
2013-2-27,40.7,37.8,34.2,36.2,31.8,27.0,87,79,64,29.85,29.50,11,4,19,0.12
2013-2-28,37.4,35.1,33.2,32.5,30.2,27.5,92,82,78,30.06,29.07,11,1,15,0.04